sensor_id;sensor_type;location;lat;lon;timestamp;pressure;altitude;pressure_sealevel;temperature;humidity
62634;BME280;48704;50.534;6.442;2023-06-26T00:01:10;95476.06;;;19.70;78.14
62634;BME280;48704;50.534;6.442;2023-06-26T00:03:36;95483.69;;;19.76;77.59
62634;BME280;48704;50.534;6.442;2023-06-26T00:06:01;95481.84;;;19.65;77.87
62634;BME280;48704;50.534;6.442;2023-06-26T00:08:27;95479.88;;;19.60;77.81
62634;BME280;48704;50.534;6.442;2023-06-26T00:10:53;95479.41;;;19.56;78.42
62634;BME280;48704;50.534;6.442;2023-06-26T00:13:18;95478.97;;;19.52;78.91
62634;BME280;48704;50.534;6.442;2023-06-26T00:15:43;95476.31;;;19.41;78.75
62634;BME280;48704;50.534;6.442;2023-06-26T00:18:08;95479.34;;;19.29;79.54
62634;BME280;48704;50.534;6.442;2023-06-26T00:20:34;95478.38;;;19.40;78.79
62634;BME280;48704;50.534;6.442;2023-06-26T00:23:00;95479.13;;;19.27;79.42
62634;BME280;48704;50.534;6.442;2023-06-26T00:25:25;95474.09;;;19.33;78.50
62634;BME280;48704;50.534;6.442;2023-06-26T00:27:50;95474.22;;;19.60;76.53
62634;BME280;48704;50.534;6.442;2023-06-26T00:30:15;95478.44;;;19.53;77.25
62634;BME280;48704;50.534;6.442;2023-06-26T00:32:41;95474.38;;;19.49;78.01
62634;BME280;48704;50.534;6.442;2023-06-26T00:35:06;95477.91;;;19.36;78.92
62634;BME280;48704;50.534;6.442;2023-06-26T00:37:31;95468.69;;;19.35;79.06
62634;BME280;48704;50.534;6.442;2023-06-26T00:39:57;95469.44;;;19.04;81.45
62634;BME280;48704;50.534;6.442;2023-06-26T00:42:22;95471.88;;;19.13;81.25
62634;BME280;48704;50.534;6.442;2023-06-26T00:44:48;95471.97;;;19.08;82.13
62634;BME280;48704;50.534;6.442;2023-06-26T00:47:15;95472.50;;;19.06;83.46
62634;BME280;48704;50.534;6.442;2023-06-26T00:49:41;95471.13;;;18.94;84.60
62634;BME280;48704;50.534;6.442;2023-06-26T00:52:06;95466.59;;;18.72;84.96
62634;BME280;48704;50.534;6.442;2023-06-26T00:54:32;95466.13;;;18.87;84.28
62634;BME280;48704;50.534;6.442;2023-06-26T00:56:57;95459.13;;;18.93;83.30
62634;BME280;48704;50.534;6.442;2023-06-26T00:59:23;95462.56;;;19.18;81.17
62634;BME280;48704;50.534;6.442;2023-06-26T01:01:48;95454.69;;;19.43;80.37
62634;BME280;48704;50.534;6.442;2023-06-26T01:04:14;95458.94;;;19.50;79.74
62634;BME280;48704;50.534;6.442;2023-06-26T01:06:46;95455.63;;;19.32;80.50
62634;BME280;48704;50.534;6.442;2023-06-26T01:09:20;95455.84;;;19.21;82.00
62634;BME280;48704;50.534;6.442;2023-06-26T01:11:46;95456.47;;;19.14;81.49
62634;BME280;48704;50.534;6.442;2023-06-26T01:14:12;95448.53;;;19.13;82.21
62634;BME280;48704;50.534;6.442;2023-06-26T01:16:39;95455.38;;;19.17;82.38
62634;BME280;48704;50.534;6.442;2023-06-26T01:19:10;95447.28;;;19.27;82.20
62634;BME280;48704;50.534;6.442;2023-06-26T01:21:42;95448.03;;;19.27;81.29
62634;BME280;48704;50.534;6.442;2023-06-26T01:24:14;95441.41;;;19.38;79.46
62634;BME280;48704;50.534;6.442;2023-06-26T01:26:46;95443.06;;;19.47;79.77
62634;BME280;48704;50.534;6.442;2023-06-26T01:29:15;95438.34;;;19.55;78.40
62634;BME280;48704;50.534;6.442;2023-06-26T01:31:41;95442.91;;;19.58;78.39
62634;BME280;48704;50.534;6.442;2023-06-26T01:34:07;95441.97;;;19.50;80.34
62634;BME280;48704;50.534;6.442;2023-06-26T01:36:33;95437.81;;;19.37;79.60
62634;BME280;48704;50.534;6.442;2023-06-26T01:38:58;95438.69;;;19.32;79.97
62634;BME280;48704;50.534;6.442;2023-06-26T01:41:23;95448.28;;;19.43;78.92
62634;BME280;48704;50.534;6.442;2023-06-26T01:51:59;95440.28;;;19.60;78.24
62634;BME280;48704;50.534;6.442;2023-06-26T01:54:30;95438.13;;;19.66;77.87
62634;BME280;48704;50.534;6.442;2023-06-26T01:56:59;95438.53;;;19.70;77.27
62634;BME280;48704;50.534;6.442;2023-06-26T01:59:25;95438.53;;;19.70;77.94
62634;BME280;48704;50.534;6.442;2023-06-26T02:01:53;95435.50;;;19.68;78.38
62634;BME280;48704;50.534;6.442;2023-06-26T02:04:19;95443.78;;;19.92;76.51
62634;BME280;48704;50.534;6.442;2023-06-26T02:06:44;95440.53;;;19.88;77.40
62634;BME280;48704;50.534;6.442;2023-06-26T02:09:09;95434.66;;;19.99;75.89
62634;BME280;48704;50.534;6.442;2023-06-26T02:11:35;95445.84;;;19.92;76.75
62634;BME280;48704;50.534;6.442;2023-06-26T02:14:00;95445.94;;;20.13;75.56
62634;BME280;48704;50.534;6.442;2023-06-26T02:16:25;95441.38;;;20.10;75.74
62634;BME280;48704;50.534;6.442;2023-06-26T02:18:50;95447.25;;;20.25;75.31
62634;BME280;48704;50.534;6.442;2023-06-26T02:21:16;95440.72;;;20.30;75.40
62634;BME280;48704;50.534;6.442;2023-06-26T02:23:41;95442.44;;;20.33;75.72
62634;BME280;48704;50.534;6.442;2023-06-26T02:26:06;95443.53;;;20.30;76.12
62634;BME280;48704;50.534;6.442;2023-06-26T02:28:31;95439.59;;;20.46;75.40
62634;BME280;48704;50.534;6.442;2023-06-26T02:30:59;95436.56;;;20.44;75.86
62634;BME280;48704;50.534;6.442;2023-06-26T02:33:24;95442.56;;;20.27;77.37
62634;BME280;48704;50.534;6.442;2023-06-26T02:35:49;95450.72;;;20.31;77.35
62634;BME280;48704;50.534;6.442;2023-06-26T02:38:15;95454.44;;;20.26;77.87
62634;BME280;48704;50.534;6.442;2023-06-26T02:40:40;95449.09;;;20.22;78.21
62634;BME280;48704;50.534;6.442;2023-06-26T02:43:06;95463.16;;;20.01;79.13
62634;BME280;48704;50.534;6.442;2023-06-26T02:45:31;95460.56;;;20.03;79.06
62634;BME280;48704;50.534;6.442;2023-06-26T02:47:56;95463.03;;;19.94;79.85
62634;BME280;48704;50.534;6.442;2023-06-26T02:50:21;95465.09;;;19.80;81.42
62634;BME280;48704;50.534;6.442;2023-06-26T02:52:47;95451.81;;;19.75;82.02
62634;BME280;48704;50.534;6.442;2023-06-26T02:55:15;95458.78;;;19.61;83.18
62634;BME280;48704;50.534;6.442;2023-06-26T02:57:41;95470.53;;;19.65;83.12
62634;BME280;48704;50.534;6.442;2023-06-26T03:00:06;95470.94;;;19.56;84.41
62634;BME280;48704;50.534;6.442;2023-06-26T03:02:33;95455.44;;;19.30;86.49
62634;BME280;48704;50.534;6.442;2023-06-26T03:04:58;95465.59;;;19.20;88.47
62634;BME280;48704;50.534;6.442;2023-06-26T03:07:24;95464.25;;;19.08;90.93
62634;BME280;48704;50.534;6.442;2023-06-26T03:09:49;95460.06;;;19.15;91.43
62634;BME280;48704;50.534;6.442;2023-06-26T03:12:14;95472.50;;;19.06;94.27
62634;BME280;48704;50.534;6.442;2023-06-26T03:14:39;95473.63;;;18.84;99.19
62634;BME280;48704;50.534;6.442;2023-06-26T03:17:05;95470.56;;;18.63;100.00
62634;BME280;48704;50.534;6.442;2023-06-26T03:19:32;95471.88;;;18.62;100.00
62634;BME280;48704;50.534;6.442;2023-06-26T03:21:57;95478.19;;;18.68;100.00
62634;BME280;48704;50.534;6.442;2023-06-26T03:24:23;95472.97;;;18.35;100.00
62634;BME280;48704;50.534;6.442;2023-06-26T03:26:48;95467.47;;;18.24;100.00
62634;BME280;48704;50.534;6.442;2023-06-26T03:29:13;95476.63;;;18.30;100.00
62634;BME280;48704;50.534;6.442;2023-06-26T03:31:38;95476.44;;;18.03;100.00
62634;BME280;48704;50.534;6.442;2023-06-26T03:34:04;95486.44;;;18.04;100.00
62634;BME280;48704;50.534;6.442;2023-06-26T03:36:30;95479.63;;;17.94;100.00
62634;BME280;48704;50.534;6.442;2023-06-26T03:38:55;95476.56;;;17.92;100.00
62634;BME280;48704;50.534;6.442;2023-06-26T03:41:22;95479.97;;;18.10;100.00
62634;BME280;48704;50.534;6.442;2023-06-26T03:43:48;95469.97;;;17.60;100.00
62634;BME280;48704;50.534;6.442;2023-06-26T03:46:13;95474.09;;;17.83;100.00
62634;BME280;48704;50.534;6.442;2023-06-26T03:48:39;95477.22;;;18.04;100.00
62634;BME280;48704;50.534;6.442;2023-06-26T03:51:05;95480.56;;;18.02;100.00
62634;BME280;48704;50.534;6.442;2023-06-26T03:53:31;95489.72;;;18.09;100.00
62634;BME280;48704;50.534;6.442;2023-06-26T03:55:57;95479.28;;;18.03;100.00
62634;BME280;48704;50.534;6.442;2023-06-26T03:58:22;95481.50;;;18.11;100.00
62634;BME280;48704;50.534;6.442;2023-06-26T04:00:47;95490.53;;;18.03;100.00
62634;BME280;48704;50.534;6.442;2023-06-26T04:03:13;95490.66;;;18.17;100.00
62634;BME280;48704;50.534;6.442;2023-06-26T04:05:38;95493.38;;;18.03;100.00
62634;BME280;48704;50.534;6.442;2023-06-26T04:08:03;95488.63;;;17.68;100.00
62634;BME280;48704;50.534;6.442;2023-06-26T04:10:29;95486.31;;;17.67;100.00
62634;BME280;48704;50.534;6.442;2023-06-26T04:12:54;95482.06;;;17.55;100.00
62634;BME280;48704;50.534;6.442;2023-06-26T04:15:19;95481.16;;;17.71;100.00
62634;BME280;48704;50.534;6.442;2023-06-26T04:17:45;95488.09;;;17.40;100.00
62634;BME280;48704;50.534;6.442;2023-06-26T04:20:10;95488.94;;;17.29;100.00
62634;BME280;48704;50.534;6.442;2023-06-26T04:22:35;95493.31;;;17.55;100.00
62634;BME280;48704;50.534;6.442;2023-06-26T04:25:02;95501.06;;;17.49;100.00
62634;BME280;48704;50.534;6.442;2023-06-26T04:27:28;95508.06;;;17.72;100.00
62634;BME280;48704;50.534;6.442;2023-06-26T04:29:53;95507.00;;;17.75;100.00
62634;BME280;48704;50.534;6.442;2023-06-26T04:32:19;95503.78;;;17.60;100.00
62634;BME280;48704;50.534;6.442;2023-06-26T04:34:44;95505.88;;;17.54;100.00
62634;BME280;48704;50.534;6.442;2023-06-26T04:37:09;95507.75;;;17.46;100.00
62634;BME280;48704;50.534;6.442;2023-06-26T04:39:36;95506.63;;;17.30;100.00
62634;BME280;48704;50.534;6.442;2023-06-26T04:42:02;95508.41;;;17.27;100.00
62634;BME280;48704;50.534;6.442;2023-06-26T04:44:28;95508.34;;;17.38;100.00
62634;BME280;48704;50.534;6.442;2023-06-26T04:46:53;95508.06;;;17.42;100.00
62634;BME280;48704;50.534;6.442;2023-06-26T04:49:18;95513.63;;;17.48;100.00
62634;BME280;48704;50.534;6.442;2023-06-26T04:51:45;95515.09;;;17.24;100.00
62634;BME280;48704;50.534;6.442;2023-06-26T04:54:11;95510.91;;;17.36;100.00
62634;BME280;48704;50.534;6.442;2023-06-26T04:56:36;95503.94;;;17.43;100.00
62634;BME280;48704;50.534;6.442;2023-06-26T04:59:02;95508.63;;;17.65;100.00
62634;BME280;48704;50.534;6.442;2023-06-26T05:01:28;95512.63;;;17.75;100.00
62634;BME280;48704;50.534;6.442;2023-06-26T05:03:55;95513.13;;;17.79;100.00
62634;BME280;48704;50.534;6.442;2023-06-26T05:06:21;95515.69;;;17.77;100.00
62634;BME280;48704;50.534;6.442;2023-06-26T05:08:46;95507.47;;;17.79;100.00
62634;BME280;48704;50.534;6.442;2023-06-26T05:11:11;95515.56;;;17.88;100.00
62634;BME280;48704;50.534;6.442;2023-06-26T05:13:37;95513.75;;;17.91;100.00
62634;BME280;48704;50.534;6.442;2023-06-26T05:16:02;95506.75;;;17.97;100.00
62634;BME280;48704;50.534;6.442;2023-06-26T05:18:27;95513.75;;;18.15;100.00
62634;BME280;48704;50.534;6.442;2023-06-26T05:20:53;95516.03;;;18.17;100.00
62634;BME280;48704;50.534;6.442;2023-06-26T05:23:18;95524.53;;;17.87;100.00
62634;BME280;48704;50.534;6.442;2023-06-26T05:25:44;95509.81;;;17.99;100.00
62634;BME280;48704;50.534;6.442;2023-06-26T05:28:11;95518.97;;;18.06;100.00
62634;BME280;48704;50.534;6.442;2023-06-26T05:30:37;95519.28;;;17.78;100.00
62634;BME280;48704;50.534;6.442;2023-06-26T05:33:03;95522.19;;;17.91;100.00
62634;BME280;48704;50.534;6.442;2023-06-26T05:35:30;95524.50;;;18.17;100.00
62634;BME280;48704;50.534;6.442;2023-06-26T05:37:56;95521.97;;;17.89;100.00
62634;BME280;48704;50.534;6.442;2023-06-26T05:40:21;95524.97;;;17.72;100.00
62634;BME280;48704;50.534;6.442;2023-06-26T05:42:47;95528.84;;;17.93;100.00
62634;BME280;48704;50.534;6.442;2023-06-26T05:45:13;95536.94;;;18.02;100.00
62634;BME280;48704;50.534;6.442;2023-06-26T05:47:38;95533.00;;;18.11;100.00
62634;BME280;48704;50.534;6.442;2023-06-26T05:50:04;95525.06;;;17.85;100.00
62634;BME280;48704;50.534;6.442;2023-06-26T05:52:29;95528.19;;;18.06;100.00
62634;BME280;48704;50.534;6.442;2023-06-26T05:54:58;95540.03;;;18.23;100.00
62634;BME280;48704;50.534;6.442;2023-06-26T05:57:26;95542.31;;;18.25;100.00
62634;BME280;48704;50.534;6.442;2023-06-26T05:59:52;95547.84;;;17.87;100.00
62634;BME280;48704;50.534;6.442;2023-06-26T06:02:18;95550.38;;;17.61;100.00
62634;BME280;48704;50.534;6.442;2023-06-26T06:04:43;95541.41;;;17.68;100.00
62634;BME280;48704;50.534;6.442;2023-06-26T06:07:08;95544.81;;;17.85;100.00
62634;BME280;48704;50.534;6.442;2023-06-26T06:09:34;95543.69;;;17.64;100.00
62634;BME280;48704;50.534;6.442;2023-06-26T06:11:59;95552.72;;;17.57;100.00
62634;BME280;48704;50.534;6.442;2023-06-26T06:14:26;95566.03;;;17.26;100.00
62634;BME280;48704;50.534;6.442;2023-06-26T06:16:51;95563.69;;;17.30;100.00
62634;BME280;48704;50.534;6.442;2023-06-26T06:19:17;95565.47;;;16.98;100.00
62634;BME280;48704;50.534;6.442;2023-06-26T06:21:42;95558.22;;;17.08;100.00
62634;BME280;48704;50.534;6.442;2023-06-26T06:24:08;95564.75;;;16.86;100.00
62634;BME280;48704;50.534;6.442;2023-06-26T06:26:34;95546.31;;;17.26;100.00
62634;BME280;48704;50.534;6.442;2023-06-26T06:29:00;95549.59;;;17.36;100.00
62634;BME280;48704;50.534;6.442;2023-06-26T06:31:25;95551.91;;;17.62;100.00
62634;BME280;48704;50.534;6.442;2023-06-26T06:33:53;95552.44;;;17.60;100.00
62634;BME280;48704;50.534;6.442;2023-06-26T06:36:19;95551.91;;;17.62;100.00
62634;BME280;48704;50.534;6.442;2023-06-26T06:38:44;95560.88;;;17.66;100.00
62634;BME280;48704;50.534;6.442;2023-06-26T06:41:09;95560.22;;;17.49;100.00
62634;BME280;48704;50.534;6.442;2023-06-26T06:43:34;95566.69;;;17.44;100.00
62634;BME280;48704;50.534;6.442;2023-06-26T06:46:01;95573.59;;;17.78;100.00
62634;BME280;48704;50.534;6.442;2023-06-26T06:48:26;95578.47;;;17.78;100.00
62634;BME280;48704;50.534;6.442;2023-06-26T06:50:51;95583.91;;;17.70;100.00
62634;BME280;48704;50.534;6.442;2023-06-26T06:53:17;95585.97;;;17.64;100.00
62634;BME280;48704;50.534;6.442;2023-06-26T06:55:45;95597.44;;;17.42;100.00
62634;BME280;48704;50.534;6.442;2023-06-26T06:58:11;95603.22;;;17.49;100.00
62634;BME280;48704;50.534;6.442;2023-06-26T07:00:36;95597.44;;;17.42;100.00
62634;BME280;48704;50.534;6.442;2023-06-26T07:03:01;95611.69;;;17.49;100.00
62634;BME280;48704;50.534;6.442;2023-06-26T07:05:26;95604.47;;;17.54;100.00
62634;BME280;48704;50.534;6.442;2023-06-26T07:07:51;95618.03;;;17.55;100.00
62634;BME280;48704;50.534;6.442;2023-06-26T07:10:17;95610.69;;;17.47;100.00
62634;BME280;48704;50.534;6.442;2023-06-26T07:12:42;95624.06;;;17.41;100.00
62634;BME280;48704;50.534;6.442;2023-06-26T07:15:09;95633.69;;;17.51;100.00
62634;BME280;48704;50.534;6.442;2023-06-26T07:17:34;95629.03;;;17.59;100.00
62634;BME280;48704;50.534;6.442;2023-06-26T07:20:01;95630.09;;;17.56;100.00
62634;BME280;48704;50.534;6.442;2023-06-26T07:22:28;95637.16;;;16.86;100.00
62634;BME280;48704;50.534;6.442;2023-06-26T07:24:54;95650.69;;;17.40;100.00
62634;BME280;48704;50.534;6.442;2023-06-26T07:27:20;95650.00;;;17.69;100.00
62634;BME280;48704;50.534;6.442;2023-06-26T07:29:45;95646.63;;;17.76;100.00
62634;BME280;48704;50.534;6.442;2023-06-26T07:35:08;95654.28;;;17.40;100.00
62634;BME280;48704;50.534;6.442;2023-06-26T07:37:34;95646.41;;;17.27;100.00
62634;BME280;48704;50.534;6.442;2023-06-26T07:39:59;95633.81;;;17.40;100.00
62634;BME280;48704;50.534;6.442;2023-06-26T07:42:24;95630.25;;;17.75;100.00
62634;BME280;48704;50.534;6.442;2023-06-26T07:44:49;95636.34;;;17.79;100.00
62634;BME280;48704;50.534;6.442;2023-06-26T07:47:15;95646.19;;;17.96;100.00
62634;BME280;48704;50.534;6.442;2023-06-26T07:49:40;95638.44;;;17.73;100.00
62634;BME280;48704;50.534;6.442;2023-06-26T07:52:06;95639.25;;;17.62;100.00
62634;BME280;48704;50.534;6.442;2023-06-26T07:54:31;95653.34;;;17.97;100.00
62634;BME280;48704;50.534;6.442;2023-06-26T07:56:58;95646.59;;;17.82;100.00
62634;BME280;48704;50.534;6.442;2023-06-26T07:59:26;95656.66;;;18.01;100.00
62634;BME280;48704;50.534;6.442;2023-06-26T08:01:53;95663.97;;;18.16;100.00
62634;BME280;48704;50.534;6.442;2023-06-26T08:04:19;95677.91;;;18.02;100.00
62634;BME280;48704;50.534;6.442;2023-06-26T08:06:48;95675.44;;;17.93;100.00
62634;BME280;48704;50.534;6.442;2023-06-26T08:09:14;95673.59;;;17.66;100.00
62634;BME280;48704;50.534;6.442;2023-06-26T08:11:40;95681.06;;;17.93;100.00
62634;BME280;48704;50.534;6.442;2023-06-26T08:14:05;95692.53;;;18.01;100.00
62634;BME280;48704;50.534;6.442;2023-06-26T08:16:30;95683.34;;;17.65;100.00
62634;BME280;48704;50.534;6.442;2023-06-26T08:18:56;95688.69;;;17.63;100.00
62634;BME280;48704;50.534;6.442;2023-06-26T08:21:21;95699.69;;;17.72;100.00
62634;BME280;48704;50.534;6.442;2023-06-26T08:23:46;95697.97;;;17.93;100.00
62634;BME280;48704;50.534;6.442;2023-06-26T08:26:12;95692.88;;;17.92;100.00
62634;BME280;48704;50.534;6.442;2023-06-26T08:28:38;95696.63;;;18.06;100.00
62634;BME280;48704;50.534;6.442;2023-06-26T08:31:03;95701.31;;;17.92;100.00
62634;BME280;48704;50.534;6.442;2023-06-26T08:33:28;95697.50;;;17.89;100.00
62634;BME280;48704;50.534;6.442;2023-06-26T08:35:53;95692.25;;;18.04;100.00
62634;BME280;48704;50.534;6.442;2023-06-26T08:38:19;95699.09;;;18.15;100.00
62634;BME280;48704;50.534;6.442;2023-06-26T08:40:46;95702.13;;;17.87;100.00
62634;BME280;48704;50.534;6.442;2023-06-26T08:43:11;95708.28;;;17.85;100.00
62634;BME280;48704;50.534;6.442;2023-06-26T08:45:36;95709.38;;;18.42;100.00
62634;BME280;48704;50.534;6.442;2023-06-26T08:48:03;95716.28;;;18.17;100.00
62634;BME280;48704;50.534;6.442;2023-06-26T08:50:33;95705.69;;;18.23;100.00
62634;BME280;48704;50.534;6.442;2023-06-26T08:53:23;95707.25;;;18.48;100.00
62634;BME280;48704;50.534;6.442;2023-06-26T08:55:57;95712.13;;;18.78;100.00
62634;BME280;48704;50.534;6.442;2023-06-26T08:58:23;95711.06;;;18.21;100.00
62634;BME280;48704;50.534;6.442;2023-06-26T09:00:48;95717.69;;;18.29;100.00
62634;BME280;48704;50.534;6.442;2023-06-26T09:03:15;95701.00;;;18.85;100.00
62634;BME280;48704;50.534;6.442;2023-06-26T09:05:40;95708.66;;;19.09;95.92
62634;BME280;48704;50.534;6.442;2023-06-26T09:08:06;95701.94;;;18.69;97.31
62634;BME280;48704;50.534;6.442;2023-06-26T09:10:32;95698.66;;;18.35;99.23
62634;BME280;48704;50.534;6.442;2023-06-26T09:12:57;95703.16;;;18.98;90.16
62634;BME280;48704;50.534;6.442;2023-06-26T09:15:24;95696.72;;;18.79;94.12
62634;BME280;48704;50.534;6.442;2023-06-26T09:17:49;95700.00;;;19.45;95.10
62634;BME280;48704;50.534;6.442;2023-06-26T09:20:14;95705.59;;;19.69;89.61
62634;BME280;48704;50.534;6.442;2023-06-26T09:22:42;95695.53;;;18.93;89.65
62634;BME280;48704;50.534;6.442;2023-06-26T09:25:09;95698.22;;;18.55;92.43
62634;BME280;48704;50.534;6.442;2023-06-26T09:27:35;95696.44;;;19.01;89.91
62634;BME280;48704;50.534;6.442;2023-06-26T09:30:02;95689.00;;;19.41;88.16
62634;BME280;48704;50.534;6.442;2023-06-26T09:32:28;95704.56;;;19.48;82.35
62634;BME280;48704;50.534;6.442;2023-06-26T09:34:54;95705.06;;;19.52;84.62
62634;BME280;48704;50.534;6.442;2023-06-26T09:37:22;95716.41;;;19.46;77.82
62634;BME280;48704;50.534;6.442;2023-06-26T09:39:48;95734.03;;;19.15;74.21
62634;BME280;48704;50.534;6.442;2023-06-26T09:42:14;95717.16;;;19.09;79.33
62634;BME280;48704;50.534;6.442;2023-06-26T09:44:47;95723.53;;;18.91;82.03
62634;BME280;48704;50.534;6.442;2023-06-26T09:47:16;95712.94;;;19.59;81.28
62634;BME280;48704;50.534;6.442;2023-06-26T09:49:42;95736.19;;;19.46;78.46
62634;BME280;48704;50.534;6.442;2023-06-26T09:52:14;95720.00;;;19.47;77.86
62634;BME280;48704;50.534;6.442;2023-06-26T09:54:40;95718.63;;;19.34;81.69
62634;BME280;48704;50.534;6.442;2023-06-26T09:57:09;95730.09;;;19.80;79.05
62634;BME280;48704;50.534;6.442;2023-06-26T09:59:35;95724.19;;;19.21;80.99
62634;BME280;48704;50.534;6.442;2023-06-26T10:02:01;95723.81;;;19.49;78.79
62634;BME280;48704;50.534;6.442;2023-06-26T10:04:26;95735.78;;;19.61;80.23
62634;BME280;48704;50.534;6.442;2023-06-26T10:06:54;95737.06;;;19.97;77.34
62634;BME280;48704;50.534;6.442;2023-06-26T10:09:21;95738.03;;;20.00;75.79
62634;BME280;48704;50.534;6.442;2023-06-26T10:11:57;95740.66;;;19.79;75.03
62634;BME280;48704;50.534;6.442;2023-06-26T10:14:33;95747.38;;;19.95;77.02
62634;BME280;48704;50.534;6.442;2023-06-26T10:17:01;95761.09;;;20.23;75.31
62634;BME280;48704;50.534;6.442;2023-06-26T10:19:29;95747.09;;;19.61;71.52
62634;BME280;48704;50.534;6.442;2023-06-26T10:21:57;95752.28;;;19.57;69.64
62634;BME280;48704;50.534;6.442;2023-06-26T10:24:25;95758.75;;;19.89;71.81
62634;BME280;48704;50.534;6.442;2023-06-26T10:27:02;95752.66;;;19.85;72.42
62634;BME280;48704;50.534;6.442;2023-06-26T10:29:30;95758.78;;;20.40;73.43
62634;BME280;48704;50.534;6.442;2023-06-26T10:31:58;95766.78;;;20.04;76.13
62634;BME280;48704;50.534;6.442;2023-06-26T10:34:25;95764.75;;;19.67;76.91
62634;BME280;48704;50.534;6.442;2023-06-26T10:37:01;95766.34;;;19.81;73.92
62634;BME280;48704;50.534;6.442;2023-06-26T10:39:27;95769.03;;;19.49;75.35
62634;BME280;48704;50.534;6.442;2023-06-26T10:41:54;95773.44;;;19.69;73.24
62634;BME280;48704;50.534;6.442;2023-06-26T10:44:20;95768.44;;;20.13;72.22
62634;BME280;48704;50.534;6.442;2023-06-26T10:46:55;95769.16;;;19.81;70.40
62634;BME280;48704;50.534;6.442;2023-06-26T10:49:27;95767.91;;;20.14;68.21
62634;BME280;48704;50.534;6.442;2023-06-26T10:51:53;95770.72;;;20.33;67.76
62634;BME280;48704;50.534;6.442;2023-06-26T10:54:20;95763.13;;;20.73;64.96
62634;BME280;48704;50.534;6.442;2023-06-26T10:56:47;95771.44;;;20.52;66.86
62634;BME280;48704;50.534;6.442;2023-06-26T10:59:19;95762.34;;;20.86;63.63
62634;BME280;48704;50.534;6.442;2023-06-26T11:01:53;95751.88;;;20.81;64.05
62634;BME280;48704;50.534;6.442;2023-06-26T11:04:53;95766.75;;;20.23;68.39
62634;BME280;48704;50.534;6.442;2023-06-26T11:07:24;95770.13;;;20.21;59.94
62634;BME280;48704;50.534;6.442;2023-06-26T11:10:08;95782.63;;;20.45;61.71
62634;BME280;48704;50.534;6.442;2023-06-26T11:15:00;95774.47;;;20.99;60.40
62634;BME280;48704;50.534;6.442;2023-06-26T11:17:25;95783.34;;;20.32;60.82
62634;BME280;48704;50.534;6.442;2023-06-26T11:19:52;95783.97;;;21.02;57.36
62634;BME280;48704;50.534;6.442;2023-06-26T11:22:18;95777.25;;;21.31;58.70
62634;BME280;48704;50.534;6.442;2023-06-26T11:24:44;95775.91;;;21.59;56.54
62634;BME280;48704;50.534;6.442;2023-06-26T11:27:09;95787.53;;;20.89;60.66
62634;BME280;48704;50.534;6.442;2023-06-26T11:29:35;95780.91;;;20.23;65.14
62634;BME280;48704;50.534;6.442;2023-06-26T11:32:02;95788.38;;;20.71;62.08
62634;BME280;48704;50.534;6.442;2023-06-26T11:34:30;95786.34;;;20.98;61.79
62634;BME280;48704;50.534;6.442;2023-06-26T11:36:56;95784.38;;;20.93;63.73
62634;BME280;48704;50.534;6.442;2023-06-26T11:39:21;95791.72;;;21.15;61.82
62634;BME280;48704;50.534;6.442;2023-06-26T11:41:47;95793.06;;;21.53;59.39
62634;BME280;48704;50.534;6.442;2023-06-26T11:44:12;95798.56;;;21.19;58.97
62634;BME280;48704;50.534;6.442;2023-06-26T11:46:39;95797.31;;;21.33;62.66
62634;BME280;48704;50.534;6.442;2023-06-26T11:49:05;95794.03;;;21.43;61.72
62634;BME280;48704;50.534;6.442;2023-06-26T11:51:31;95791.69;;;21.01;61.82
62634;BME280;48704;50.534;6.442;2023-06-26T11:53:57;95799.25;;;21.65;59.42
62634;BME280;48704;50.534;6.442;2023-06-26T11:56:23;95810.94;;;21.35;59.23
62634;BME280;48704;50.534;6.442;2023-06-26T11:59:06;95816.88;;;22.11;55.52
62634;BME280;48704;50.534;6.442;2023-06-26T12:04:00;95813.78;;;20.90;64.45
62634;BME280;48704;50.534;6.442;2023-06-26T12:06:27;95808.88;;;21.49;60.07
62634;BME280;48704;50.534;6.442;2023-06-26T12:08:54;95796.13;;;22.16;58.92
62634;BME280;48704;50.534;6.442;2023-06-26T12:11:20;95790.94;;;22.27;55.54
62634;BME280;48704;50.534;6.442;2023-06-26T12:13:48;95804.94;;;22.25;57.61
62634;BME280;48704;50.534;6.442;2023-06-26T12:16:14;95808.75;;;21.41;60.96
62634;BME280;48704;50.534;6.442;2023-06-26T12:18:39;95811.81;;;20.85;60.26
62634;BME280;48704;50.534;6.442;2023-06-26T12:21:05;95811.84;;;20.98;62.55
62634;BME280;48704;50.534;6.442;2023-06-26T12:23:38;95816.72;;;20.01;65.27
62634;BME280;48704;50.534;6.442;2023-06-26T12:26:19;95818.53;;;20.68;62.19
62634;BME280;48704;50.534;6.442;2023-06-26T12:28:46;95830.50;;;20.43;61.34
62634;BME280;48704;50.534;6.442;2023-06-26T12:31:15;95823.69;;;21.28;57.88
62634;BME280;48704;50.534;6.442;2023-06-26T12:33:42;95841.19;;;20.68;58.92
62634;BME280;48704;50.534;6.442;2023-06-26T12:36:14;95845.34;;;20.11;63.80
62634;BME280;48704;50.534;6.442;2023-06-26T12:38:45;95839.38;;;20.52;61.01
62634;BME280;48704;50.534;6.442;2023-06-26T12:41:13;95852.00;;;20.83;61.11
62634;BME280;48704;50.534;6.442;2023-06-26T12:43:42;95847.38;;;20.99;57.73
62634;BME280;48704;50.534;6.442;2023-06-26T12:46:08;95853.06;;;20.80;59.03
62634;BME280;48704;50.534;6.442;2023-06-26T12:48:44;95842.91;;;20.21;56.11
62634;BME280;48704;50.534;6.442;2023-06-26T12:51:12;95841.56;;;21.89;53.20
62634;BME280;48704;50.534;6.442;2023-06-26T12:53:38;95838.28;;;21.59;55.76
62634;BME280;48704;50.534;6.442;2023-06-26T12:56:07;95836.59;;;22.50;51.99
62634;BME280;48704;50.534;6.442;2023-06-26T12:58:33;95862.47;;;22.26;51.21
62634;BME280;48704;50.534;6.442;2023-06-26T13:00:58;95856.72;;;21.65;55.03
62634;BME280;48704;50.534;6.442;2023-06-26T13:03:24;95840.28;;;22.58;52.57
62634;BME280;48704;50.534;6.442;2023-06-26T13:05:49;95851.38;;;22.01;52.81
62634;BME280;48704;50.534;6.442;2023-06-26T13:08:16;95847.66;;;22.41;50.43